Hines, Minnesota
Current Conditions -  °F | °C
As of 4:52 PM on Friday 28 Nov 2014 (Local Time) from KBJI Reporting Station
Overcast Overcast  
Wind Chill:   Ceiling: 4800
Heat Index: 14°   Visibility: 10mi
Dew Point:   Wind: 10mph
Humidity: 79%   Direction: 110°ESE
Pressure: 29.77"   Gusts: NA
Location:  47.69°N, 94.63°W
Report Text: KBJI 282252Z AUTO 11009KT 10SM SCT030 OVC048 M10/M13 A2977 RMK AO2 T11001130
Loading
Personal Weather Stations






























Interactive Weather Map New forecast layout! Learn more

10-Day Weather Forecast

Advertisements
Track Severe Weather on mobile